Górski Bieg Frassatiego

Wydarzenie:
Górski Bieg Frassatiego Górski Bieg Frassatiego
Organizator:
Instytut Gość Media
Data:
26.09.2020
Miejsce:
Międzybrodzie Bialskie
Dystans:
22.0 km
Zgłoszonych:
338
Ukończyło:
243
Nieklasyfikowani:
95
Na trasie:
0
Klasyfikacja wg czasów netto

Klasyfikacja w kategorii: M-35 (M-35)

Poz Nr Nazwisko, Imię PłećRokKategoriaDuchowniKrajKlubMiasto9kmCzas nettoStrataTempo
1 1 Faron Robert M (1) 1974 M-35 (1) POL Salco Garmin Team Zalesie 39:58,8(1) 1:41:00,5 04:35
2 8 Flisiński Łukasz M (6) 1981 M-35 (2) POL Sosnowiec 42:13,8(6) 1:46:58,6 05:58,1 04:51
3 5 Dyrlaga Marcin M (7) 1984 M-35 (3) POL Syntonic Team Węgierska Górka 42:57,6(7) 1:47:16,9 06:16,4 04:52
4 23 Waśko Paweł M (8) 1973 M-35 (4) POL Centrum Masażu Bielsko Biała 43:03,4(8) 1:52:15,3 11:14,8 05:06
5 17 Tracz Łukasz M (9) 1985 M-35 (5) POL www.treningfizjoterapia.pl/AquaReh Rzeszów 45:13,7(12) 1:52:59,3 11:58,8 05:08
6 15 Koźmiński Józef M (10) 1981 M-35 (6) POL LKS Orzeł Kozy Kozy 43:52,3(9) 1:53:03,4 12:02,9 05:08
7 24 Tobera Łukasz M (14) 1979 M-35 (7) POL Wieliczka 45:31,3(14) 1:55:21,0 14:20,5 05:14
8 196 Grucel Sławomir M (18) 1981 M-35 (8) POL Sosnowiec 45:55,2(18) 1:57:35,0 16:34,5 05:20
9 46 Szady Tomasz M (19) 1985 M-35 (9) MPDuchow (1) POL Unia Hrubieszów Tomaszów Lubelski 45:20,4(13) 1:57:55,4 16:54,9 05:21
10 21 Myca Paweł M (20) 1975 M-35 (10) POL Tauron Team 45:51,7(17) 1:57:57,1 16:56,6 05:21
11 169 Czuwaj Andrzej M (21) 1976 M-35 (11) POL Grojec 47:32,6(26) 1:59:17,1 18:16,6 05:25
12 47 Kozak Michał M (22) 1983 M-35 (12) MPDuchow (2) POL biegnijsercem.pl Sanok 47:11,4(24) 2:00:38,5 19:38,0 05:29
13 218 Kania Krzysiek M (23) 1977 M-35 (13) POL Węgierska Górka 47:50,6(28) 2:01:54,7 20:54,2 05:32
14 77 Suski Marcin M (28) 1985 M-35 (14) POL Lepiej Biegać Gorlice 48:51,0(33) 2:03:00,0 21:59,5 05:35
15 291 Ratyński Marek M (29) 1976 M-35 (15) POL Otwocki tuptacz Otwock 48:40,1(31) 2:04:57,3 23:56,8 05:40
16 133 KOŁEK SEBASTIAN M (30) 1979 M-35 (16) POL BESKID MAŁY POWER MIĘDZYBRODZIE BIALSKIE 48:13,9(30) 2:05:48,3 24:47,8 05:43
17 25 Snarski Dariusz M (31) 1971 M-35 (17) POL WATAH-Łączy nas bieganie Katowice 48:40,9(32) 2:05:55,7 24:55,2 05:43
18 73 Semberecki Marcin M (32) 1983 M-35 (18) POL TG Sokół Zakopane Zakopane 49:31,3(35) 2:06:38,6 25:38,1 05:45
19 119 Mazur Marek M (33) 1974 M-35 (19) POL Jastrzębie - Zdrój 49:44,4(37) 2:07:01,4 26:00,9 05:46
20 48 Hodana Marcin M (34) 1971 M-35 (20) MPDuchow (3) POL Kraków 49:40,6(36) 2:08:23,9 27:23,4 05:50
21 78 Krause Kuba M (36) 1982 M-35 (21) POL Natural Born Runners Poznań 51:47,0(48) 2:12:06,0 31:05,5 06:00
22 170 Dembecki Marcin M (37) 1978 M-35 (22) POL Łemkowyna Ultra Trail Siemianowice Śląskie 50:30,4(39) 2:12:22,4 31:21,9 06:01
23 229 Kozik Tomasz M (38) 1981 M-35 (23) POL Sprintex Brzuśnik 51:26,9(45) 2:12:48,3 31:47,8 06:02
24 190 Główka Rafał M (39) 1976 M-35 (24) POL Katowice 51:59,4(49) 2:12:55,1 31:54,6 06:02
25 164 Chudy Dawid M (40) 1985 M-35 (25) POL Przeciszów 52:44,5(55) 2:13:13,4 32:12,9 06:03
26 167 RÓŻYCKI MARCIN M (41) 1979 M-35 (26) POL Tychy 52:01,4(50) 2:13:18,9 32:18,4 06:03
27 141 Różański Mateusz M (43) 1981 M-35 (27) POL WE MAKE YOUR DATA VIZYBLE Katowice 52:30,4(52) 2:13:39,5 32:39,0 06:04
28 186 Galuskin Alexey M (45) 1983 M-35 (28) RUS Grupa Nomax Tarnowskie Góry 53:43,6(63) 2:15:14,3 34:13,8 06:08
29 212 Juzyk Adam M (49) 1977 M-35 (29) POL Biegamy z Sercem Ruda Śląska 52:42,4(54) 2:16:20,0 35:19,5 06:11
30 254 Mańka Sylwester M (50) 1971 M-35 (30) POL 53:31,5(61) 2:16:45,4 35:44,9 06:12
31 151 Wagner Robert M (53) 1971 M-35 (31) POL Frassati-gosc.pl Team Bytom 54:00,7(67) 2:16:58,1 35:57,6 06:13
32 82 Białożyt Krzysztof M (57) 1971 M-35 (32) POL Kamesznica 55:28,4(87) 2:18:34,4 37:33,9 06:17
33 106 Horak Roland M (58) 1982 M-35 (33) POL Kęckie Harpagany Kęty 54:16,0(69) 2:18:36,0 37:35,5 06:18
34 351 Romaniak Mateusz M (59) 1975 M-35 (34) POL Wilkowice 54:20,1(72) 2:19:22,0 38:21,5 06:20
35 280 Papała Edward M (60) 1977 M-35 (35) POL Miasteczko Śląskie 54:39,1(77) 2:19:29,5 38:29,0 06:20
36 184 Frej Bogumił M (61) 1984 M-35 (36) POL Kraków 53:49,9(65) 2:20:07,6 39:07,1 06:22
37 87 Milbrant Kornel M (62) 1983 M-35 (37) POL All Runners Are Beautiful Ruda Śląska 54:34,8(76) 2:20:11,2 39:10,7 06:22
38 200 Hulin Sebastian M (63) 1974 M-35 (38) POL PAŁAC MŁODZIEŻY JUDO KATOWICE Katowice 55:16,8(84) 2:20:57,9 39:57,4 06:24
39 350 Pawlusiak Łukasz M (65) 1980 M-35 (39) POL Wilkowice 54:14,2(68) 2:21:37,7 40:37,2 06:26
40 173 Dubala Dawid M (67) 1979 M-35 (40) POL Pszczyna 55:28,7(88) 2:21:49,3 40:48,8 06:26
41 94 Ficek Paweł M (70) 1977 M-35 (41) POL Paczyna 53:53,7(66) 2:22:23,4 41:22,9 06:28
42 201 Iwański Maciej M (73) 1981 M-35 (42) POL SKORUPA TRIATHLON Oświęcim 58:55,1(121) 2:22:45,5 41:45,0 06:29
43 168 Czernik Piotr M (74) 1980 M-35 (43) POL Kopytkawbiegu Tychy 54:27,8(74) 2:22:55,2 41:54,7 06:29
44 231 Kozłowski Łukasz M (75) 1981 M-35 (44) POL Kopytkawbiegu Tychy 54:25,8(73) 2:22:55,3 41:54,8 06:29
45 157 Błasiak Henryk M (76) 1973 M-35 (45) POL Porąbka 56:08,4(95) 2:23:08,6 42:08,1 06:30
46 104 HERLICZKA TOMASZ M (77) 1975 M-35 (46) POL AML-FLY TEAM Gliwice 56:07,8(94) 2:23:19,2 42:18,7 06:30
47 75 Panek Krzysztof M (78) 1976 M-35 (47) POL Team Papry Bieruń 55:49,1(91) 2:24:02,4 43:01,9 06:32
48 81 Banasiuk Maciej M (79) 1971 M-35 (48) POL WARSZAWA 54:33,6(75) 2:24:20,6 43:20,1 06:33
49 275 Pietkun Rafał M (80) 1977 M-35 (49) POL RaBlaTeam Rybnik 57:16,2(105) 2:24:46,0 43:45,5 06:34
50 114 Loranc Paweł M (82) 1979 M-35 (50) POL WILD BUCHAYS Kozy 56:22,5(99) 2:25:04,9 44:04,4 06:35
51 71 Wójcio Hubert M (83) 1976 M-35 (51) POL runonline.pl Szczawnica 56:30,7(100) 2:26:06,0 45:05,5 06:38
52 335 Wandzel Tomasz M (84) 1980 M-35 (52) MPDuchow (5) POL Rybnik 56:21,4(98) 2:26:18,3 45:17,8 06:39
53 285 Psota Leszek M (85) 1980 M-35 (53) POL Rybnik 55:25,3(85) 2:26:32,4 45:31,9 06:39
54 137 Radomski Grzegorz M (87) 1979 M-35 (54) POL Mokre Ru Mikołów 55:40,0(89) 2:27:00,5 46:00,0 06:40
55 153 Bartula Arkadiusz M (90) 1976 M-35 (55) POL Brzeszcze 55:11,1(82) 2:28:15,3 47:14,8 06:44
56 145 Stalmach Damian M (91) 1978 M-35 (56) POL Lecymy Durś Piekary Śląskie 59:39,7(130) 2:28:26,4 47:25,9 06:44
57 202 Izydorczyk Robert M (94) 1978 M-35 (57) POL Tychy 57:30,9(107) 2:28:53,0 47:52,5 06:46
58 121 Wojtas Arkadiusz M (95) 1976 M-35 (58) POL PoWoli do Celu Wola 58:56,6(122) 2:28:57,7 47:57,2 06:46
59 58 Skwarło Marek M (96) 1971 M-35 (59) MPDuchow (6) POL Kapucyni Kielce 58:33,6(117) 2:29:25,9 48:25,4 06:47
60 337 Wiśniewski Maciej M (98) 1974 M-35 (60) POL Bazyl Husky Team Świecie 58:26,3(116) 2:29:51,1 48:50,6 06:48
61 259 Mizera Krzysztof M (99) 1982 M-35 (61) POL Kraków 55:48,6(90) 2:30:12,2 49:11,7 06:49
62 333 Tomasiczek Ryszard M (100) 1978 M-35 (62) POL Stara Wieś 57:18,2(106) 2:30:30,0 49:29,5 06:50
63 223 Kolonko Stanisław M (101) 1972 M-35 (63) POL GÓRKI Tychy 58:22,4(115) 2:30:30,9 49:30,4 06:50
64 295 Rygiel Janusz M (103) 1983 M-35 (64) POL Zbytków 57:51,0(111) 2:30:55,2 49:54,7 06:51
65 53 Winiarski Krystian M (104) 1983 M-35 (65) MPDuchow (7) POL WSD Rzeszów Rzeszów 58:15,4(114) 2:31:02,4 50:01,9 06:51
66 131 Knap Jarosław M (106) 1975 M-35 (66) POL Będzin 56:13,2(97) 2:31:52,6 50:52,1 06:54
67 249 MAJCHRZAK Jacek M (108) 1980 M-35 (67) POL Kościan team Kościan 59:35,2(128) 2:32:21,0 51:20,5 06:55
68 253 Małek Adam M (109) 1982 M-35 (68) POL Orzesze 56:47,8(102) 2:32:39,5 51:39,0 06:56
69 239 Kupczak Tomasz M (110) 1983 M-35 (69) POL TSG Młóckarnia Cisiec 59:53,0(132) 2:33:01,7 52:01,2 06:57
70 217 Kampka Rafał M (111) 1975 M-35 (70) POL Bielsko-Biała 1:00:58,0(140) 2:34:59,9 53:59,4 07:02
71 266 Owczarek Paweł M (112) 1977 M-35 (71) POL Bielsko-Biała 58:02,1(113) 2:35:15,8 54:15,3 07:03
72 313 Szczepanik Grzegorz M (114) 1980 M-35 (72) POL WilDeer Kraków 58:50,0(120) 2:35:42,9 54:42,4 07:04
73 88 Kołodziejczyk Krzysztof M (116) 1979 M-35 (73) POL Wataha Chrzanów 57:37,2(109) 2:36:24,7 55:24,2 07:06
74 288 Rajzer Mariusz M (117) 1973 M-35 (74) POL BodyKinetic Warszawa 59:26,5(125) 2:36:35,0 55:34,5 07:07
75 290 Rakowski Paweł M (118) 1975 M-35 (75) POL Łódź 59:32,4(127) 2:38:04,2 57:03,7 07:11
76 116 Magner Rafał M (119) 1978 M-35 (76) POL Ultra Cross Para Ruda Śląska 1:03:06,1(168) 2:38:06,0 57:05,5 07:11
77 189 Gątkowski Mateusz M (120) 1979 M-35 (77) POL ZG Run Lubin 1:02:41,1(165) 2:38:51,0 57:50,5 07:13
78 257 Męcner Michał M (123) 1978 M-35 (78) POL bestwina 57:53,4(112) 2:39:33,8 58:33,3 07:15
79 233 Książkiewicz Przemysław M (125) 1979 M-35 (79) POL Kraków 1:00:36,0(138) 2:40:44,1 59:43,6 07:18
80 219 Karbowiak Artur M (127) 1978 M-35 (80) POL Borek 1:02:02,0(154) 2:42:14,3 1:01:13,8 07:22
81 297 SKIBICKI KRZYSZTOF M (130) 1970 M-35 (81) POL OKB ZADYSZKA Oświęcim 59:38,4(129) 2:42:41,3 1:01:40,8 07:23
82 225 Kołodziej Jacek M (133) 1973 M-35 (82) POL Compañeros Asfalt Team Gliwice 1:00:15,3(136) 2:43:43,6 1:02:43,1 07:26
83 296 SKAWIŃSKI PAWEŁ M (136) 1973 M-35 (83) POL SIERSZANIE Trzebinia 1:03:57,3(177) 2:45:52,9 1:04:52,4 07:32
84 67 Grzesikiewicz Mariusz M (137) 1979 M-35 (84) POL Gliwice 1:01:42,9(151) 2:45:54,9 1:04:54,4 07:32
85 178 Gawlak Robert M (138) 1983 M-35 (85) POL Miasto Na Górze / RyTM Cz-Dz Czechowice-Dziedzice 1:04:18,5(180) 2:45:54,9 1:04:54,4 07:32
86 113 Kaczor Łukasz M (139) 1982 M-35 (86) POL WILD BUCHAYS Buczkowice 1:01:51,3(153) 2:46:17,4 1:05:16,9 07:33
87 115 Piątek Tomasz M (140) 1978 M-35 (87) POL WILD BUCHAYS Pisarzowice 1:03:02,2(167) 2:46:19,7 1:05:19,2 07:33
88 258 Minojć Szymon M (141) 1985 M-35 (88) POL Tychy 1:02:40,6(164) 2:46:22,6 1:05:22,1 07:33
89 224 Kołakowski Jakub M (143) 1977 M-35 (89) POL Warszawa 1:00:47,8(139) 2:48:49,7 1:07:49,2 07:40
90 198 Grzywacz Sebastian M (144) 1975 M-35 (90) POL Gliwice 1:04:43,6(182) 2:49:33,5 1:08:33,0 07:42
91 179 Dzideczek Marcin M (145) 1980 M-35 (91) POL Team ZabieganeDni Warszawa 1:02:16,8(160) 2:49:39,5 1:08:39,0 07:42
92 262 NIKOLAJUK ROBERT M (146) 1982 M-35 (92) POL Olsztyn 1:02:12,2(158) 2:50:08,9 1:09:08,4 07:44
93 317 Szymański Mariusz M (151) 1983 M-35 (93) POL Tauron Team Rokitno Szlacheckie 1:04:49,1(184) 2:52:09,8 1:11:09,3 07:49
94 292 Reszytylo Grzegor M (153) 1972 M-35 (94) POL Łańcut 1:06:27,8(192) 2:54:06,1 1:13:05,6 07:54
95 194 Gnot Krzysztof M (154) 1973 M-35 (95) POL Opole 1:04:57,5(185) 2:54:10,6 1:13:10,1 07:55
96 267 Pamuła Dariusz M (155) 1970 M-35 (96) POL RYTM Czechowice Czechowice.-Dziedzice 1:02:38,2(163) 2:54:34,0 1:13:33,5 07:56
97 352 Sarosiek Artur M (156) 1984 M-35 (97) POL Zbój Team Bielsko-Biała 1:07:54,5(202) 2:55:45,2 1:14:44,7 07:59
98 150 ZDAŃSKI PAWEŁ M (158) 1985 M-35 (98) POL Katowice 1:03:33,7(170) 2:55:51,2 1:14:50,7 07:59
99 174 Duda Wojciech M (159) 1978 M-35 (99) POL Tychy 1:02:05,7(156) 2:56:21,1 1:15:20,6 08:00
100 72 Suchowian Maciej M (160) 1979 M-35 (100) POL TG Sokół Zakopane Zakopane 1:02:19,3(162) 2:57:18,6 1:16:18,1 08:03
101 281 Prokopczuk Wiktor M (162) 1985 M-35 (101) POL Magna Formpol Running Team Tychy 1:07:21,5(196) 2:59:01,5 1:18:01,0 08:08
102 314 Szewczyk Mariusz M (163) 1972 M-35 (102) POL Kraków 1:09:44,7(215) 3:00:16,7 1:19:16,2 08:11
103 154 Bąk Witold M (164) 1985 M-35 (103) POL Katowice 1:04:17,1(179) 3:00:48,4 1:19:47,9 08:13
104 278 Pocięgiel Michał M (167) 1982 M-35 (104) POL Tauron Team 1:11:00,5(223) 3:03:26,9 1:22:26,4 08:20
105 311 Szajewski Arkadiusz M (169) 1978 M-35 (105) POL Kraków 1:08:31,5(208) 3:05:13,6 1:24:13,1 08:25
106 188 Garbarz Roman M (170) 1971 M-35 (106) POL Tychy 1:08:09,7(205) 3:06:54,2 1:25:53,7 08:29
107 107 Horak Lesław M (171) 1977 M-35 (107) POL Kryzys Wieku Średniego Mnich 1:10:24,3(218) 3:07:01,0 1:26:00,5 08:30
108 252 Malinowski Michał M (174) 1983 M-35 (108) POL Malinki Łódź 1:11:02,8(224) 3:08:16,2 1:27:15,7 08:33
109 197 Grygny Sławomir M (175) 1983 M-35 (109) POL Andrychów 1:10:28,2(219) 3:09:45,6 1:28:45,1 08:37
110 213 Kaczmarczyk Ryszard M (176) 1970 M-35 (110) POL Kęckie Harpagany Kobiernice 1:08:49,8(210) 3:10:02,4 1:29:01,9 08:38
111 301 Sokołowski Sławomir M (179) 1978 M-35 (111) POL Beskid Mały Jest Wspaniały Kęty 1:09:57,4(217) 3:11:29,9 1:30:29,4 08:42
112 305 Staruch Mariusz M (180) 1980 M-35 (112) POL biegam bo lubię Poznań 1:09:47,9(216) 3:13:06,8 1:32:06,3 08:46
113 315 Szołtysek Piotr M (186) 1970 M-35 (113) POL Pyskowice 1:12:39,7(230) 3:28:20,6 1:47:20,1 09:28
DNS 3 Michulec Jacek M 1980 M-35 POL Syntonic Team Żywiec
DNS 10 Sobczyk Przemysław M 1978 M-35 POL T. G. Sokół Zakopane Zakopane
DNS 12 Gajda Marcin M 1978 M-35 POL Tychy
DNS 13 Sobczak Henryk M 1983 M-35 POL Nowy Targ
DNS 22 Dudzik Łukasz M 1984 M-35 POL Góral biega Kamienica
DNS 52 Olszewski Michał M 1982 M-35 MPDuchow POL profeto.pl Stadniki
DNS 89 Babecki Tomasz M 1972 M-35 POL PARKRUN CHRZANÓW Chrzanów
DNS 96 Fonał Michał M 1985 M-35 POL Jelenia Góra
DNS 143 Skalski Mateusz M 1985 M-35 POL Wrocław
DNS 159 Buczek Jan M 1985 M-35 POL Warszawa
DNS 160 Buda Tobiasz M 1983 M-35 POL Kalwaria Zebrzydowska
DNS 166 Cituk Grzegorz M 1977 M-35 POL SportRebel Tychy
DNS 171 Deska Leszek M 1976 M-35 POL www.leszekbiega.pl Nowa Iwiczna
DNS 182 Falba Andrzej M 1975 M-35 POL Dzikie Żółwie Kędzierzyn - Koźle
DNS 183 Figas Andrzej M 1970 M-35 POL Sokół Śląsk Katowice Katowice
DNS 205 Janczyk Grzegorz M 1974 M-35 POL Rybnicka Grupa BiegowaPędzimyRazem Rybnik
DNS 207 Jaskulski Robert M 1979 M-35 POL Myszków
DNS 208 Jezierski Krzysztof M 1972 M-35 POL WATAHA ŁĄCZY NAS BIEGANIE Chrzanów
DNS 209 Jurczyk Wiesław M 1975 M-35 POL Jurczykowo Czechowice-Dziedzice
DNS 214 Kaminski Wojciech M 1985 M-35 POL Jaslo
DNS 221 Kastelik Dariusz M 1977 M-35 POL Sprintex Team Pietrzykowice
DNS 228 Kowalski Jacek M 1971 M-35 POL RUNHOGS Tychy Tychy
DNS 232 Krainski Piotr M 1973 M-35 POL #czeladzbiega Czeladz
DNS 238 Kulpok Tomasz M 1980 M-35 POL KRS TKKF Jastrząb Ruda Śląska Ruda Śląska
DNS 242 Lipiński Daniel M 1981 M-35 POL Biegiem Przez Góry Jastrzębie Zdrój
DNS 243 Lipski Przemysław M 1975 M-35 POL Team Never Quit Kędzierzyn-Koźle
DNS 263 Nowarski Andrzej M 1980 M-35 POL Warszawa
DNS 268 Paskuda Marcin M 1985 M-35 POL Geodezja Paskuda Racibórz
DNS 270 Pawlaczek Paweł M 1978 M-35 POL Jaworze
DNS 271 Pawlak Gabriel M 1979 M-35 POL Radwanice
DNS 274 Piecuch Tomasz M 1979 M-35 POL Chorzów
DNS 283 Przybyło Krzysztof M 1976 M-35 POL Szczepanów
DNS 303 SOLOCH Bartłomiej M 1982 M-35 POL Goczałkowice-Zdrój
DNS 306 Stelmach Artur M 1978 M-35 POL IRONia Międzybrodzie Bialskie
DNS 309 Styczeń Leszek M 1978 M-35 POL Ofiary kamienca Zabrze
DNS 312 SZCZEPANIAK DAMIAN M 1981 M-35 POL KAMIENICA KAMIENICA
DNS 320 Świątek Marcin M 1977 M-35 POL Wataha-Łączy nas bieganie Bielsko-Biała
DNS 321 Targosz Piotr M 1977 M-35 POL Sprintex Team Twardorzeczka
DNS 334 Tomaszek Grzegorz M 1983 M-35 POL Nowa Huta Tam/Anton Team Kraków
DNS 338 Włodarczyk Marek M 1974 M-35 POL RIS Kotes Radom
DNS 342 Zaborowski Grzegorz M 1983 M-35 POL Otwock

BGTimeSport © 2015-2020